Time;durP1;ratioP1;P1;durP2;ratioP2;P2;SDS_P1;SDS_P2;PMS_P1;PMS_P2;Temp;Humidity;BMP_temperature;BMP_pressure;BME280_temperature;BME280_humidity;BME280_pressure;Samples;Min_cycle;Max_cycle;Signal;HPM_P1;HPM_P2
2022/03/06 00:01:11;;;;;;;21.30;12.82;;;;;;;;;;5070559;28;20043;-62
2022/03/06 00:03:37;;;;;;;18.05;11.30;;;;;;;;;;5088582;28;20040;-62
2022/03/06 00:06:03;;;;;;;19.38;11.25;;;;;;;;;;5085970;28;20455;-62
2022/03/06 00:08:29;;;;;;;19.35;11.52;;;;;;;;;;5088882;28;20060;-63
2022/03/06 00:10:57;;;;;;;16.85;10.70;;;;;;;;;;5069871;28;20400;-62
2022/03/06 00:13:23;;;;;;;17.90;11.70;;;;;;;;;;5086899;28;20100;-62
2022/03/06 00:15:50;;;;;;;19.20;11.60;;;;;;;;;;5088993;28;20399;-63
2022/03/06 00:18:16;;;;;;;19.67;11.63;;;;;;;;;;5086651;28;20037;-62
2022/03/06 00:20:42;;;;;;;19.33;11.27;;;;;;;;;;5089103;28;20036;-62
2022/03/06 00:23:09;;;;;;;18.90;11.45;;;;;;;;;;5068153;28;20101;-62
2022/03/06 00:25:35;;;;;;;16.08;10.95;;;;;;;;;;5069921;28;20040;-63
2022/03/06 00:28:02;;;;;;;15.02;11.25;;;;;;;;;;5089228;28;20040;-62
2022/03/06 00:30:28;;;;;;;15.05;11.18;;;;;;;;;;5088766;28;20447;-63
2022/03/06 00:32:55;;;;;;;19.85;12.25;;;;;;;;;;5066919;28;20089;-62
2022/03/06 00:35:22;;;;;;;23.50;11.93;;;;;;;;;;5087579;28;20057;-63
2022/03/06 00:37:49;;;;;;;17.65;12.15;;;;;;;;;;5069510;28;20044;-63
2022/03/06 00:40:15;;;;;;;18.00;11.32;;;;;;;;;;5064122;28;20055;-62
2022/03/06 00:42:41;;;;;;;19.48;12.18;;;;;;;;;;5069484;28;20046;-62
2022/03/06 00:45:07;;;;;;;22.15;11.73;;;;;;;;;;5068321;28;20086;-63
2022/03/06 00:47:33;;;;;;;23.13;12.85;;;;;;;;;;5087441;28;20485;-63
2022/03/06 00:50:02;;;;;;;19.33;11.95;;;;;;;;;;5089433;28;20123;-62
2022/03/06 00:52:28;;;;;;;19.60;12.55;;;;;;;;;;5084773;28;20093;-63
2022/03/06 00:54:54;;;;;;;18.60;11.85;;;;;;;;;;5084319;28;20047;-63
2022/03/06 00:57:20;;;;;;;16.92;11.10;;;;;;;;;;5069453;28;20049;-62
2022/03/06 00:59:46;;;;;;;17.13;11.48;;;;;;;;;;5069243;28;20047;-63
2022/03/06 01:02:13;;;;;;;15.07;10.18;;;;;;;;;;5070015;28;20463;-62
2022/03/06 01:04:39;;;;;;;20.17;12.38;;;;;;;;;;5085792;28;20406;-62
2022/03/06 01:07:06;;;;;;;15.77;11.07;;;;;;;;;;5070064;28;20052;-63
2022/03/06 01:09:33;;;;;;;18.45;11.80;;;;;;;;;;5086713;28;20095;-62
2022/03/06 01:11:59;;;;;;;14.95;11.45;;;;;;;;;;5070112;28;20506;-62
2022/03/06 01:14:25;;;;;;;16.33;11.98;;;;;;;;;;5087963;28;20067;-62
2022/03/06 01:16:51;;;;;;;19.23;11.25;;;;;;;;;;5087068;28;20040;-62
2022/03/06 01:19:17;;;;;;;18.20;11.70;;;;;;;;;;5085241;28;20127;-62
2022/03/06 01:21:43;;;;;;;19.35;12.48;;;;;;;;;;5069505;28;20043;-62
2022/03/06 01:24:09;;;;;;;16.85;12.00;;;;;;;;;;5083938;28;20041;-62
2022/03/06 01:26:36;;;;;;;18.08;11.35;;;;;;;;;;5081880;28;20123;-63
2022/03/06 01:29:02;;;;;;;20.10;11.65;;;;;;;;;;5085921;28;20148;-62
2022/03/06 01:31:28;;;;;;;19.02;11.35;;;;;;;;;;5087756;28;20509;-62
2022/03/06 01:33:54;;;;;;;18.77;11.13;;;;;;;;;;5069219;28;20153;-63
2022/03/06 01:36:20;;;;;;;19.75;12.43;;;;;;;;;;5066916;28;20131;-63
2022/03/06 01:38:46;;;;;;;18.20;11.63;;;;;;;;;;5067927;28;20048;-63
2022/03/06 01:41:12;;;;;;;20.50;12.10;;;;;;;;;;5086683;28;20545;-62
2022/03/06 01:43:39;;;;;;;19.42;11.10;;;;;;;;;;5086858;28;20160;-62
2022/03/06 01:46:05;;;;;;;15.02;10.98;;;;;;;;;;5086486;28;20047;-62
2022/03/06 01:48:31;;;;;;;15.93;11.70;;;;;;;;;;5087368;28;20043;-62
2022/03/06 01:50:57;;;;;;;19.02;11.35;;;;;;;;;;5086361;28;20044;-62
2022/03/06 01:53:23;;;;;;;20.50;11.63;;;;;;;;;;5068613;28;20136;-62
2022/03/06 01:55:49;;;;;;;20.52;11.10;;;;;;;;;;5083791;28;20514;-62
2022/03/06 01:58:15;;;;;;;19.48;11.07;;;;;;;;;;5087037;28;20442;-63
2022/03/06 02:00:44;;;;;;;19.70;10.43;;;;;;;;;;5084433;28;20056;-63
2022/03/06 02:03:11;;;;;;;15.82;9.85;;;;;;;;;;5088379;28;20044;-62
2022/03/06 02:05:38;;;;;;;15.80;9.50;;;;;;;;;;5066069;28;20431;-62
2022/03/06 02:08:05;;;;;;;15.07;9.07;;;;;;;;;;5086406;28;20052;-62
2022/03/06 02:10:32;;;;;;;18.95;10.00;;;;;;;;;;5087404;28;20381;-62
2022/03/06 02:12:58;;;;;;;16.48;9.18;;;;;;;;;;5085978;28;20041;-62
2022/03/06 02:15:24;;;;;;;14.45;9.43;;;;;;;;;;5065412;28;20123;-62
2022/03/06 02:17:51;;;;;;;17.02;9.60;;;;;;;;;;5068295;28;20048;-62
2022/03/06 02:20:24;;;;;;;17.58;8.95;;;;;;;;;;5085678;28;20062;-63
2022/03/06 02:22:57;;;;;;;14.57;8.13;;;;;;;;;;5086688;28;20040;-63
2022/03/06 02:25:32;;;;;;;12.73;7.57;;;;;;;;;;5081864;28;20036;-62
2022/03/06 02:27:59;;;;;;;12.43;8.43;;;;;;;;;;5088912;28;20036;-62
2022/03/06 02:30:26;;;;;;;14.77;7.40;;;;;;;;;;5087330;28;20463;-63
2022/03/06 02:32:53;;;;;;;13.05;7.90;;;;;;;;;;5087201;28;20666;-62
2022/03/06 02:35:19;;;;;;;13.38;6.93;;;;;;;;;;5082361;28;20051;-62
2022/03/06 02:37:46;;;;;;;17.05;5.60;;;;;;;;;;5086266;28;20051;-62
2022/03/06 02:40:13;;;;;;;12.50;6.88;;;;;;;;;;5085388;28;20040;-63
2022/03/06 02:42:41;;;;;;;11.13;5.65;;;;;;;;;;5084776;28;20052;-62
2022/03/06 02:45:09;;;;;;;13.57;6.70;;;;;;;;;;5087449;28;20055;-63
2022/03/06 02:47:36;;;;;;;10.73;6.10;;;;;;;;;;5095005;28;20045;-63
2022/03/06 02:50:03;;;;;;;11.43;5.93;;;;;;;;;;5087298;28;20380;-62
2022/03/06 02:52:29;;;;;;;15.65;6.22;;;;;;;;;;5085521;28;20086;-63
2022/03/06 02:54:55;;;;;;;13.63;6.03;;;;;;;;;;5083520;28;20047;-62
2022/03/06 02:57:22;;;;;;;13.13;5.85;;;;;;;;;;5089856;28;20086;-63
2022/03/06 02:59:48;;;;;;;9.95;5.90;;;;;;;;;;5072966;28;20566;-62
2022/03/06 03:02:14;;;;;;;13.65;6.75;;;;;;;;;;5068143;28;20079;-62
2022/03/06 03:04:40;;;;;;;11.88;5.97;;;;;;;;;;5091054;28;20124;-62
2022/03/06 03:07:08;;;;;;;11.25;5.70;;;;;;;;;;5070092;28;20075;-63
2022/03/06 03:09:34;;;;;;;13.93;5.18;;;;;;;;;;5070579;28;20135;-63
2022/03/06 03:12:01;;;;;;;12.30;5.68;;;;;;;;;;5071937;28;20047;-62
2022/03/06 03:14:31;;;;;;;10.90;5.63;;;;;;;;;;5072638;28;20047;-63
2022/03/06 03:16:58;;;;;;;11.27;5.40;;;;;;;;;;5090458;28;20369;-63
2022/03/06 03:19:24;;;;;;;10.35;4.88;;;;;;;;;;5089900;28;20036;-62
2022/03/06 03:21:50;;;;;;;11.15;4.97;;;;;;;;;;5087209;28;20104;-63
2022/03/06 03:24:16;;;;;;;10.32;5.30;;;;;;;;;;5088361;28;20395;-63
2022/03/06 03:26:42;;;;;;;9.43;4.90;;;;;;;;;;5087435;28;20517;-62
2022/03/06 03:29:08;;;;;;;11.43;6.45;;;;;;;;;;5090701;28;20161;-62
2022/03/06 03:31:34;;;;;;;8.93;4.60;;;;;;;;;;5089507;28;20048;-63
2022/03/06 03:34:01;;;;;;;12.07;5.50;;;;;;;;;;5087894;28;20094;-62
2022/03/06 03:36:27;;;;;;;6.90;4.70;;;;;;;;;;5070679;28;20136;-62
2022/03/06 03:38:53;;;;;;;12.75;5.30;;;;;;;;;;5072754;28;20047;-62
2022/03/06 03:41:19;;;;;;;16.08;6.22;;;;;;;;;;5098140;28;20044;-62
2022/03/06 03:43:45;;;;;;;10.98;5.57;;;;;;;;;;5089498;28;20393;-62
2022/03/06 03:46:11;;;;;;;11.50;5.78;;;;;;;;;;5084573;28;20044;-62
2022/03/06 03:48:37;;;;;;;11.63;6.43;;;;;;;;;;5083379;28;20048;-62
2022/03/06 03:51:04;;;;;;;11.30;5.63;;;;;;;;;;5086630;28;20039;-62
2022/03/06 03:53:30;;;;;;;16.70;6.93;;;;;;;;;;5089874;28;20042;-62
2022/03/06 03:55:56;;;;;;;9.45;5.28;;;;;;;;;;5088855;28;20052;-62
2022/03/06 03:58:22;;;;;;;12.65;6.57;;;;;;;;;;5053849;28;20504;-63
2022/03/06 04:00:51;;;;;;;14.00;6.47;;;;;;;;;;5089649;28;20105;-62
2022/03/06 04:03:18;;;;;;;13.82;6.20;;;;;;;;;;5069091;28;20044;-62
2022/03/06 04:05:44;;;;;;;13.35;6.40;;;;;;;;;;5086684;28;20044;-63
2022/03/06 04:08:10;;;;;;;11.57;6.30;;;;;;;;;;5071376;28;20051;-63
2022/03/06 04:10:36;;;;;;;15.27;6.45;;;;;;;;;;5089524;28;20059;-62
2022/03/06 04:13:02;;;;;;;13.07;6.93;;;;;;;;;;5086988;28;20047;-62
2022/03/06 04:15:29;;;;;;;13.18;7.18;;;;;;;;;;5069919;28;20089;-62
2022/03/06 04:17:55;;;;;;;14.05;6.03;;;;;;;;;;5088316;28;20036;-62
2022/03/06 04:20:21;;;;;;;12.70;6.15;;;;;;;;;;5085832;28;20137;-62
2022/03/06 04:22:47;;;;;;;13.35;6.55;;;;;;;;;;5089955;28;20036;-62
2022/03/06 04:25:13;;;;;;;13.63;6.75;;;;;;;;;;5086482;28;20509;-63
2022/03/06 04:27:39;;;;;;;11.90;6.20;;;;;;;;;;5088263;28;20124;-63
2022/03/06 04:30:06;;;;;;;10.38;5.20;;;;;;;;;;5088440;28;20044;-63
2022/03/06 04:32:32;;;;;;;13.32;7.18;;;;;;;;;;5085336;28;20502;-63
2022/03/06 04:34:58;;;;;;;11.43;6.28;;;;;;;;;;5088362;28;20475;-62
2022/03/06 04:37:25;;;;;;;15.00;7.40;;;;;;;;;;5082274;28;20133;-63
2022/03/06 04:39:51;;;;;;;10.43;5.68;;;;;;;;;;5085206;28;20405;-62
2022/03/06 04:42:17;;;;;;;10.27;5.80;;;;;;;;;;5070443;28;20044;-63
2022/03/06 04:44:43;;;;;;;13.88;6.13;;;;;;;;;;5087835;28;20047;-62
2022/03/06 04:47:09;;;;;;;12.88;5.82;;;;;;;;;;5085031;28;20387;-62
2022/03/06 04:49:36;;;;;;;11.93;5.57;;;;;;;;;;5071059;28;20048;-62
2022/03/06 04:52:02;;;;;;;13.57;5.55;;;;;;;;;;5085306;28;20040;-62
2022/03/06 04:54:28;;;;;;;10.07;4.60;;;;;;;;;;5103858;28;20135;-62
2022/03/06 04:56:54;;;;;;;15.38;6.18;;;;;;;;;;5088018;28;20107;-62
2022/03/06 04:59:20;;;;;;;10.52;5.07;;;;;;;;;;5067688;28;20044;-62
2022/03/06 05:01:46;;;;;;;11.82;5.40;;;;;;;;;;5086941;28;20074;-62
2022/03/06 05:04:13;;;;;;;13.65;5.88;;;;;;;;;;5088587;28;20054;-62
2022/03/06 05:06:39;;;;;;;11.18;5.75;;;;;;;;;;5067723;28;20104;-63
2022/03/06 05:09:05;;;;;;;9.32;5.80;;;;;;;;;;5086912;28;20067;-62
2022/03/06 05:11:33;;;;;;;10.27;5.50;;;;;;;;;;5052545;28;20543;-62
2022/03/06 05:13:59;;;;;;;9.35;3.95;;;;;;;;;;5088832;28;20051;-62
2022/03/06 05:16:25;;;;;;;8.13;4.10;;;;;;;;;;5068385;28;20109;-62
2022/03/06 05:18:51;;;;;;;9.30;3.72;;;;;;;;;;5084645;28;20040;-62
2022/03/06 05:21:17;;;;;;;9.15;3.97;;;;;;;;;;5087382;28;20111;-63
2022/03/06 05:23:43;;;;;;;8.68;3.53;;;;;;;;;;5086645;28;20040;-62
2022/03/06 05:26:09;;;;;;;9.43;3.42;;;;;;;;;;5070077;28;20059;-63
2022/03/06 05:28:36;;;;;;;9.38;3.08;;;;;;;;;;5069143;28;20079;-62
2022/03/06 05:31:02;;;;;;;8.77;3.15;;;;;;;;;;5086539;28;20424;-62
2022/03/06 05:33:28;;;;;;;6.47;3.30;;;;;;;;;;5085346;28;20483;-62
2022/03/06 05:35:54;;;;;;;9.05;3.95;;;;;;;;;;5087796;28;20040;-62
2022/03/06 05:38:20;;;;;;;8.88;2.97;;;;;;;;;;5067516;28;20044;-63
2022/03/06 05:40:47;;;;;;;7.85;2.42;;;;;;;;;;5099068;28;20582;-62
2022/03/06 05:43:13;;;;;;;6.20;2.28;;;;;;;;;;5086095;28;20032;-62
2022/03/06 05:45:39;;;;;;;6.53;3.28;;;;;;;;;;5067736;28;20050;-62
2022/03/06 05:48:05;;;;;;;6.32;2.42;;;;;;;;;;5069962;28;20127;-62
2022/03/06 05:50:31;;;;;;;6.18;2.00;;;;;;;;;;5086079;28;20056;-63
2022/03/06 05:52:57;;;;;;;4.82;2.05;;;;;;;;;;5068393;28;20059;-62
2022/03/06 05:55:23;;;;;;;8.98;2.92;;;;;;;;;;5068151;28;20443;-63
2022/03/06 05:57:50;;;;;;;3.90;1.70;;;;;;;;;;5085829;28;20044;-62
2022/03/06 06:00:17;;;;;;;7.63;1.77;;;;;;;;;;5069997;28;20151;-62
2022/03/06 06:02:44;;;;;;;6.00;1.92;;;;;;;;;;5052293;28;20064;-62
2022/03/06 06:05:10;;;;;;;6.22;1.75;;;;;;;;;;5067827;28;20043;-62
2022/03/06 06:07:36;;;;;;;5.55;1.50;;;;;;;;;;5086575;28;20060;-62
2022/03/06 06:10:04;;;;;;;7.25;1.65;;;;;;;;;;5086710;28;20275;-62
2022/03/06 06:12:30;;;;;;;5.43;1.60;;;;;;;;;;5067672;28;20040;-62
2022/03/06 06:14:56;;;;;;;9.77;2.90;;;;;;;;;;5087322;28;20161;-62
2022/03/06 06:17:22;;;;;;;6.32;1.90;;;;;;;;;;5085922;28;20477;-62
2022/03/06 06:19:48;;;;;;;6.32;2.28;;;;;;;;;;5086034;28;20171;-62
2022/03/06 06:22:15;;;;;;;5.10;2.03;;;;;;;;;;5081366;28;20498;-62
2022/03/06 06:24:41;;;;;;;6.32;1.80;;;;;;;;;;5082484;28;20046;-63
2022/03/06 06:27:07;;;;;;;4.72;1.60;;;;;;;;;;5077924;28;20044;-62
2022/03/06 06:29:33;;;;;;;7.07;1.90;;;;;;;;;;5066573;28;20052;-62
2022/03/06 06:31:59;;;;;;;4.88;1.63;;;;;;;;;;5086423;28;20123;-63
2022/03/06 06:34:26;;;;;;;5.65;1.63;;;;;;;;;;5083621;28;20503;-62
2022/03/06 06:36:57;;;;;;;5.28;1.63;;;;;;;;;;5068035;28;20036;-62
2022/03/06 06:39:23;;;;;;;6.40;1.90;;;;;;;;;;5085801;28;20247;-62
2022/03/06 06:41:49;;;;;;;7.18;1.50;;;;;;;;;;5086989;28;20046;-62
2022/03/06 06:44:16;;;;;;;5.25;1.55;;;;;;;;;;5086069;28;20557;-62
2022/03/06 06:46:42;;;;;;;5.78;1.73;;;;;;;;;;5085694;28;20044;-63
2022/03/06 06:49:10;;;;;;;6.28;1.60;;;;;;;;;;5066215;28;20040;-62
2022/03/06 06:51:38;;;;;;;5.72;1.67;;;;;;;;;;5087125;28;20165;-62
2022/03/06 06:54:04;;;;;;;8.15;2.20;;;;;;;;;;5079607;28;20044;-63
2022/03/06 06:56:31;;;;;;;5.93;1.88;;;;;;;;;;5086712;28;20145;-62
2022/03/06 06:58:57;;;;;;;5.30;1.50;;;;;;;;;;5067555;28;20051;-62
2022/03/06 07:01:23;;;;;;;7.50;2.10;;;;;;;;;;5066664;28;20099;-63
2022/03/06 07:03:49;;;;;;;5.05;1.60;;;;;;;;;;5087326;28;20491;-62
2022/03/06 07:06:15;;;;;;;4.45;1.80;;;;;;;;;;5066989;28;20048;-62
2022/03/06 07:08:42;;;;;;;5.38;2.05;;;;;;;;;;5065011;28;20373;-62
2022/03/06 07:11:08;;;;;;;4.57;1.50;;;;;;;;;;5067896;28;20044;-62
2022/03/06 07:13:34;;;;;;;6.88;1.90;;;;;;;;;;5068892;28;20044;-62
2022/03/06 07:16:00;;;;;;;5.93;1.70;;;;;;;;;;5063859;28;20404;-62
2022/03/06 07:18:26;;;;;;;4.38;1.63;;;;;;;;;;5068481;28;20051;-62
2022/03/06 07:20:53;;;;;;;2.78;1.40;;;;;;;;;;5067032;28;20048;-62
2022/03/06 07:23:19;;;;;;;6.32;1.23;;;;;;;;;;5067721;28;20491;-62
2022/03/06 07:25:46;;;;;;;4.03;1.65;;;;;;;;;;5087323;28;20118;-62
2022/03/06 07:28:12;;;;;;;5.38;1.95;;;;;;;;;;5083785;28;20349;-62
2022/03/06 07:30:38;;;;;;;7.90;1.63;;;;;;;;;;5084828;28;20510;-62
2022/03/06 07:33:05;;;;;;;8.25;1.60;;;;;;;;;;5067945;28;20480;-62
2022/03/06 07:35:31;;;;;;;7.63;1.63;;;;;;;;;;5064428;28;20060;-62
2022/03/06 07:37:58;;;;;;;4.47;1.58;;;;;;;;;;5086756;28;20064;-63
2022/03/06 07:40:24;;;;;;;4.03;1.50;;;;;;;;;;5064756;28;20083;-62
2022/03/06 07:42:51;;;;;;;4.95;1.55;;;;;;;;;;5070284;28;20050;-63
2022/03/06 07:45:18;;;;;;;4.72;1.63;;;;;;;;;;5089325;28;20036;-62
2022/03/06 07:47:45;;;;;;;5.82;1.65;;;;;;;;;;5087078;28;20120;-62
2022/03/06 07:50:12;;;;;;;6.20;2.15;;;;;;;;;;5088220;28;20104;-62
2022/03/06 07:52:39;;;;;;;5.55;1.25;;;;;;;;;;5072439;28;20408;-62
2022/03/06 07:55:06;;;;;;;5.63;1.52;;;;;;;;;;5086518;28;20432;-62
2022/03/06 07:57:32;;;;;;;6.28;1.70;;;;;;;;;;5088299;28;20052;-62
2022/03/06 07:59:58;;;;;;;4.97;1.50;;;;;;;;;;5089992;28;20048;-63
2022/03/06 08:02:25;;;;;;;6.45;1.85;;;;;;;;;;5078599;28;20059;-62
2022/03/06 08:04:51;;;;;;;5.30;1.77;;;;;;;;;;5081819;28;20048;-63
2022/03/06 08:07:17;;;;;;;6.57;1.85;;;;;;;;;;5085527;28;20191;-62
2022/03/06 08:09:43;;;;;;;4.20;1.75;;;;;;;;;;5088857;28;20150;-62
2022/03/06 08:12:09;;;;;;;7.20;1.70;;;;;;;;;;5088085;28;20040;-63
2022/03/06 08:14:36;;;;;;;9.93;2.40;;;;;;;;;;5089624;28;20048;-62
2022/03/06 08:17:02;;;;;;;9.15;2.22;;;;;;;;;;5070550;28;20043;-62
2022/03/06 08:19:28;;;;;;;5.53;1.88;;;;;;;;;;5087667;28;20032;-62
2022/03/06 08:21:54;;;;;;;6.85;2.35;;;;;;;;;;5086530;28;20167;-62
2022/03/06 08:24:21;;;;;;;5.18;2.03;;;;;;;;;;5088996;28;20040;-63
2022/03/06 08:26:47;;;;;;;4.63;2.03;;;;;;;;;;5085434;28;20037;-63
2022/03/06 08:29:13;;;;;;;5.20;1.60;;;;;;;;;;5088728;28;20046;-62
2022/03/06 08:31:39;;;;;;;4.05;2.00;;;;;;;;;;5087983;28;20095;-63
2022/03/06 08:34:05;;;;;;;5.32;2.05;;;;;;;;;;5067465;28;20449;-63
2022/03/06 08:36:32;;;;;;;8.00;2.20;;;;;;;;;;5088530;28;20044;-63
2022/03/06 08:38:58;;;;;;;5.60;1.95;;;;;;;;;;5070288;28;20836;-63
2022/03/06 08:41:24;;;;;;;6.13;2.08;;;;;;;;;;5067917;28;20043;-63
2022/03/06 08:43:50;;;;;;;5.72;1.80;;;;;;;;;;5104360;28;20127;-63
2022/03/06 08:46:16;;;;;;;7.07;2.25;;;;;;;;;;5086538;28;20051;-63
2022/03/06 08:48:42;;;;;;;8.07;2.03;;;;;;;;;;5068982;28;20050;-63
2022/03/06 08:51:09;;;;;;;4.78;1.73;;;;;;;;;;5061734;28;20123;-63
2022/03/06 08:53:35;;;;;;;4.20;1.75;;;;;;;;;;5086972;28;20098;-63
2022/03/06 08:56:01;;;;;;;4.93;1.88;;;;;;;;;;5088019;28;20130;-63
2022/03/06 08:58:28;;;;;;;7.22;2.13;;;;;;;;;;5087931;28;20048;-63
2022/03/06 09:00:54;;;;;;;7.85;1.85;;;;;;;;;;5087930;28;20127;-63
2022/03/06 09:03:20;;;;;;;4.63;1.77;;;;;;;;;;5088198;28;20043;-63
2022/03/06 09:05:46;;;;;;;7.15;2.35;;;;;;;;;;5087700;28;20087;-62
2022/03/06 09:08:13;;;;;;;4.32;2.05;;;;;;;;;;5083569;28;20090;-63
2022/03/06 09:10:40;;;;;;;6.03;2.00;;;;;;;;;;5088575;28;20164;-63
2022/03/06 09:13:07;;;;;;;4.07;1.73;;;;;;;;;;5099713;28;20102;-63
2022/03/06 09:15:34;;;;;;;6.28;2.00;;;;;;;;;;5086478;28;20044;-63
2022/03/06 09:18:01;;;;;;;5.97;1.80;;;;;;;;;;5088969;28;20047;-63
2022/03/06 09:20:27;;;;;;;9.02;1.85;;;;;;;;;;5085052;28;20036;-63
2022/03/06 09:22:53;;;;;;;5.28;1.85;;;;;;;;;;5069810;28;20044;-63
2022/03/06 09:25:20;;;;;;;5.03;1.60;;;;;;;;;;5087186;28;20036;-62
2022/03/06 09:27:46;;;;;;;5.60;1.85;;;;;;;;;;5085317;28;20044;-63
2022/03/06 09:30:13;;;;;;;7.18;2.50;;;;;;;;;;5068476;28;20044;-63
2022/03/06 09:32:39;;;;;;;4.47;2.10;;;;;;;;;;5088475;28;20396;-63
2022/03/06 09:35:06;;;;;;;7.47;2.03;;;;;;;;;;5065596;28;20044;-63
2022/03/06 09:37:33;;;;;;;7.35;2.35;;;;;;;;;;5088169;28;20045;-63
2022/03/06 09:40:00;;;;;;;5.05;1.90;;;;;;;;;;5085019;28;20115;-63
2022/03/06 09:42:26;;;;;;;6.15;2.42;;;;;;;;;;5068076;28;20040;-63
2022/03/06 09:44:52;;;;;;;7.22;2.10;;;;;;;;;;5087346;28;20345;-63
2022/03/06 09:47:18;;;;;;;5.22;2.30;;;;;;;;;;5087729;28;20501;-63
2022/03/06 09:49:45;;;;;;;6.82;2.30;;;;;;;;;;5086236;28;20044;-63
2022/03/06 09:52:12;;;;;;;6.65;2.75;;;;;;;;;;5086618;28;20101;-63
2022/03/06 09:54:38;;;;;;;7.18;1.83;;;;;;;;;;5066239;28;20526;-63
2022/03/06 09:57:04;;;;;;;8.73;2.10;;;;;;;;;;5085878;28;20105;-63
2022/03/06 09:59:31;;;;;;;6.35;1.75;;;;;;;;;;5085878;28;20052;-63
2022/03/06 10:02:04;;;;;;;9.05;2.03;;;;;;;;;;5101376;28;20125;-63
2022/03/06 10:04:31;;;;;;;8.17;1.83;;;;;;;;;;5085831;28;20113;-63
2022/03/06 10:06:58;;;;;;;6.03;2.13;;;;;;;;;;5087400;28;20054;-63
2022/03/06 10:09:25;;;;;;;7.28;2.70;;;;;;;;;;5087268;28;20066;-63
2022/03/06 10:11:53;;;;;;;4.82;2.05;;;;;;;;;;5086134;28;20123;-63
2022/03/06 10:14:36;;;;;;;7.95;2.65;;;;;;;;;;5082034;28;20517;-63
2022/03/06 10:17:12;;;;;;;6.70;2.20;;;;;;;;;;5101809;28;20056;-63
2022/03/06 10:19:54;;;;;;;4.45;1.98;;;;;;;;;;5086982;28;20048;-63
2022/03/06 10:22:20;;;;;;;6.22;2.25;;;;;;;;;;5081187;28;20040;-63
2022/03/06 10:24:48;;;;;;;6.90;2.20;;;;;;;;;;5085132;28;20056;-63
2022/03/06 10:27:14;;;;;;;5.25;2.30;;;;;;;;;;5084191;28;20404;-63
2022/03/06 10:29:40;;;;;;;5.43;1.80;;;;;;;;;;5086118;28;20040;-63
2022/03/06 10:32:07;;;;;;;5.40;1.98;;;;;;;;;;5065578;28;20110;-63
2022/03/06 10:34:40;;;;;;;6.03;2.42;;;;;;;;;;5086554;28;20075;-63
2022/03/06 10:37:07;;;;;;;6.72;2.22;;;;;;;;;;5086462;28;20083;-63
2022/03/06 10:39:44;;;;;;;8.85;2.15;;;;;;;;;;5068299;28;20395;-63
2022/03/06 10:42:10;;;;;;;4.53;1.92;;;;;;;;;;5065506;28;20078;-63
2022/03/06 10:44:44;;;;;;;6.40;2.45;;;;;;;;;;5086404;28;20125;-63
2022/03/06 10:47:10;;;;;;;7.10;2.40;;;;;;;;;;5065503;28;20098;-63
2022/03/06 10:49:37;;;;;;;5.35;1.92;;;;;;;;;;5068340;28;20051;-63
2022/03/06 10:52:16;;;;;;;6.35;2.30;;;;;;;;;;5084052;28;20043;-63
2022/03/06 10:54:51;;;;;;;4.72;2.00;;;;;;;;;;5076687;28;20112;-63
2022/03/06 10:57:17;;;;;;;8.27;2.53;;;;;;;;;;5067761;28;20498;-62
2022/03/06 10:59:44;;;;;;;6.05;2.40;;;;;;;;;;5084670;28;20407;-63
2022/03/06 11:02:12;;;;;;;5.57;2.10;;;;;;;;;;5069117;28;20055;-63
2022/03/06 11:04:38;;;;;;;5.22;2.10;;;;;;;;;;5085211;28;20066;-63
2022/03/06 11:07:05;;;;;;;3.58;1.73;;;;;;;;;;5066538;28;20464;-63
2022/03/06 11:09:31;;;;;;;7.65;2.40;;;;;;;;;;5086839;28;20047;-63
2022/03/06 11:11:58;;;;;;;12.75;2.30;;;;;;;;;;5084032;28;20092;-63
2022/03/06 11:14:24;;;;;;;5.47;2.03;;;;;;;;;;5086084;28;20501;-63
2022/03/06 11:16:50;;;;;;;7.45;2.13;;;;;;;;;;5068721;28;20408;-63
2022/03/06 11:19:16;;;;;;;4.05;2.00;;;;;;;;;;5083296;28;20043;-63
2022/03/06 11:21:44;;;;;;;5.10;2.38;;;;;;;;;;5070604;28;20492;-63
2022/03/06 11:24:15;;;;;;;6.97;3.00;;;;;;;;;;5081420;28;20404;-63
2022/03/06 11:26:59;;;;;;;7.57;2.58;;;;;;;;;;5080024;28;20040;-73
2022/03/06 11:29:25;;;;;;;8.40;2.70;;;;;;;;;;5095180;28;20040;-63
2022/03/06 11:31:52;;;;;;;6.05;2.03;;;;;;;;;;5079680;28;20068;-63
2022/03/06 11:34:26;;;;;;;7.68;1.70;;;;;;;;;;5065581;28;20044;-63
2022/03/06 11:36:52;;;;;;;5.72;2.10;;;;;;;;;;5063446;28;20452;-62
2022/03/06 11:39:36;;;;;;;6.22;2.92;;;;;;;;;;5087906;28;20040;-63
2022/03/06 11:42:04;;;;;;;7.35;2.70;;;;;;;;;;5063442;28;20049;-63
2022/03/06 11:44:38;;;;;;;9.88;2.88;;;;;;;;;;5065602;28;20059;-63
2022/03/06 11:47:04;;;;;;;;;;;;;;;;;;5071862;28;20437;-63
2022/03/06 11:49:34;;;;;;;6.55;2.20;;;;;;;;;;5070641;28;19929;-63
2022/03/06 11:52:00;;;;;;;6.47;1.98;;;;;;;;;;5063853;28;20444;-63
2022/03/06 11:54:40;;;;;;;6.50;2.05;;;;;;;;;;5088967;28;20518;-63
2022/03/06 11:57:06;;;;;;;6.82;2.28;;;;;;;;;;5072035;28;20033;-63
2022/03/06 11:59:34;;;;;;;10.00;2.30;;;;;;;;;;5080640;28;20182;-63
2022/03/06 12:02:03;;;;;;;5.43;2.10;;;;;;;;;;5052715;28;20060;-63
2022/03/06 12:04:31;;;;;;;6.03;2.33;;;;;;;;;;5069627;28;20076;-62
2022/03/06 12:06:59;;;;;;;4.18;1.80;;;;;;;;;;5049932;28;20473;-63
2022/03/06 12:09:26;;;;;;;5.55;1.95;;;;;;;;;;5050345;28;20028;-63
2022/03/06 12:11:53;;;;;;;7.35;2.60;;;;;;;;;;5050696;28;20135;-63
2022/03/06 12:14:22;;;;;;;6.15;2.17;;;;;;;;;;5073531;28;20578;-62
2022/03/06 12:17:02;;;;;;;6.97;2.33;;;;;;;;;;5082183;28;20041;-62
2022/03/06 12:19:32;;;;;;;5.20;2.20;;;;;;;;;;5083787;28;20050;-63
2022/03/06 12:22:11;;;;;;;8.85;2.58;;;;;;;;;;5088463;28;20067;-63
2022/03/06 12:24:37;;;;;;;6.28;2.13;;;;;;;;;;5085138;28;20036;-63
2022/03/06 12:27:11;;;;;;;9.52;2.55;;;;;;;;;;5088150;28;20042;-64
2022/03/06 12:29:46;;;;;;;8.23;2.38;;;;;;;;;;5071670;28;20508;-63
2022/03/06 12:32:25;;;;;;;6.07;2.90;;;;;;;;;;5079263;28;20102;-63
2022/03/06 12:34:58;;;;;;;5.38;1.95;;;;;;;;;;5088132;28;20044;-63
2022/03/06 12:37:25;;;;;;;7.65;2.13;;;;;;;;;;5088240;28;20051;-63
2022/03/06 12:39:51;;;;;;;3.95;1.70;;;;;;;;;;5069215;28;20051;-63
2022/03/06 12:42:24;;;;;;;6.38;1.95;;;;;;;;;;5071870;28;20040;-64
2022/03/06 12:44:53;;;;;;;4.70;1.70;;;;;;;;;;5084847;28;20048;-64
2022/03/06 12:47:19;;;;;;;8.05;2.25;;;;;;;;;;5089178;28;20185;-63
2022/03/06 12:49:46;;;;;;;6.15;2.10;;;;;;;;;;5088425;28;20160;-64
2022/03/06 12:52:15;;;;;;;6.38;2.35;;;;;;;;;;5086994;28;20054;-64
2022/03/06 12:54:42;;;;;;;5.95;2.10;;;;;;;;;;5081468;28;20070;-64
2022/03/06 12:57:08;;;;;;;5.05;2.05;;;;;;;;;;5070173;28;20040;-63
2022/03/06 12:59:39;;;;;;;5.43;2.05;;;;;;;;;;5085029;28;20094;-63
2022/03/06 13:02:06;;;;;;;5.75;1.83;;;;;;;;;;5087680;28;20495;-63
2022/03/06 13:04:34;;;;;;;9.63;2.15;;;;;;;;;;5087604;28;20036;-63
2022/03/06 13:07:00;;;;;;;5.43;1.75;;;;;;;;;;5086587;28;20055;-63
2022/03/06 13:09:29;;;;;;;3.95;1.52;;;;;;;;;;5087965;28;20032;-63
2022/03/06 13:11:56;;;;;;;5.18;1.77;;;;;;;;;;5070549;28;20048;-63
2022/03/06 13:14:26;;;;;;;6.00;2.35;;;;;;;;;;5068919;28;20040;-63
2022/03/06 13:16:59;;;;;;;6.07;1.52;;;;;;;;;;5086310;28;20040;-63
2022/03/06 13:19:25;;;;;;;4.43;2.00;;;;;;;;;;5085874;28;20079;-63
2022/03/06 13:21:52;;;;;;;8.15;1.92;;;;;;;;;;5086658;28;20511;-63
2022/03/06 13:24:18;;;;;;;5.45;1.75;;;;;;;;;;5080488;28;20044;-63
2022/03/06 13:26:45;;;;;;;4.72;1.88;;;;;;;;;;5084377;28;20075;-63
2022/03/06 13:29:17;;;;;;;5.38;2.13;;;;;;;;;;5087503;28;20040;-63
2022/03/06 13:31:45;;;;;;;8.75;2.00;;;;;;;;;;5087804;28;20113;-63
2022/03/06 13:34:13;;;;;;;4.05;1.67;;;;;;;;;;5086731;28;20556;-63
2022/03/06 13:36:40;;;;;;;5.72;2.00;;;;;;;;;;5087213;28;20514;-63
2022/03/06 13:39:09;;;;;;;5.88;2.05;;;;;;;;;;5084658;28;20032;-63
2022/03/06 13:41:35;;;;;;;5.57;2.03;;;;;;;;;;5087524;28;20063;-63
2022/03/06 13:44:04;;;;;;;6.90;2.15;;;;;;;;;;5088091;28;20174;-63
2022/03/06 13:46:35;;;;;;;4.93;2.00;;;;;;;;;;5066380;28;20057;-63
2022/03/06 13:49:09;;;;;;;3.83;1.45;;;;;;;;;;5068667;28;20048;-63
2022/03/06 13:51:36;;;;;;;6.50;2.03;;;;;;;;;;5084144;28;20058;-63
2022/03/06 13:54:03;;;;;;;7.20;2.35;;;;;;;;;;5096003;28;20919;-63
2022/03/06 13:56:33;;;;;;;6.15;2.33;;;;;;;;;;5085989;28;20047;-63
2022/03/06 13:58:59;;;;;;;10.30;2.70;;;;;;;;;;5066524;28;20666;-63
2022/03/06 14:01:26;;;;;;;7.13;1.90;;;;;;;;;;5086488;28;20491;-63
2022/03/06 14:03:59;;;;;;;5.75;2.00;;;;;;;;;;5087060;28;20048;-63
2022/03/06 14:06:38;;;;;;;5.43;1.90;;;;;;;;;;5085709;28;20430;-63
2022/03/06 14:09:18;;;;;;;6.20;2.05;;;;;;;;;;5068417;28;20051;-63
2022/03/06 14:11:44;;;;;;;6.20;2.30;;;;;;;;;;5086141;28;20048;-63
2022/03/06 14:14:10;;;;;;;6.20;1.98;;;;;;;;;;5086596;28;20043;-63
2022/03/06 14:16:36;;;;;;;5.50;2.53;;;;;;;;;;5067507;28;20069;-63
2022/03/06 14:19:03;;;;;;;5.85;2.05;;;;;;;;;;5085991;28;20341;-63
2022/03/06 14:21:31;;;;;;;6.78;2.28;;;;;;;;;;5068133;28;20043;-63
2022/03/06 14:23:58;;;;;;;8.48;2.17;;;;;;;;;;5087298;28;20050;-63
2022/03/06 14:26:26;;;;;;;6.00;2.28;;;;;;;;;;5084045;28;20070;-63
2022/03/06 14:28:59;;;;;;;5.22;1.70;;;;;;;;;;5087444;28;20173;-63
2022/03/06 14:31:26;;;;;;;7.95;1.88;;;;;;;;;;5083560;28;20509;-63
2022/03/06 14:33:52;;;;;;;8.30;2.78;;;;;;;;;;5087274;28;20498;-63
2022/03/06 14:36:18;;;;;;;7.97;2.30;;;;;;;;;;5068362;28;20036;-63